sensor_id;sensor_type;location;lat;lon;timestamp;P1;durP1;ratioP1;P2;durP2;ratioP2
21743;SDS011;11034;48.556;9.342;2023-05-16T00:01:48;6.93;;;5.93;;
21743;SDS011;11034;48.556;9.342;2023-05-16T00:04:18;7.55;;;5.80;;
21743;SDS011;11034;48.556;9.342;2023-05-16T00:06:46;6.75;;;5.93;;
21743;SDS011;11034;48.556;9.342;2023-05-16T00:09:14;11.57;;;7.15;;
21743;SDS011;11034;48.556;9.342;2023-05-16T00:11:42;11.35;;;7.70;;
21743;SDS011;11034;48.556;9.342;2023-05-16T00:14:10;12.23;;;8.82;;
21743;SDS011;11034;48.556;9.342;2023-05-16T00:16:40;12.23;;;8.35;;
21743;SDS011;11034;48.556;9.342;2023-05-16T00:19:08;11.38;;;8.18;;
21743;SDS011;11034;48.556;9.342;2023-05-16T00:21:38;10.52;;;8.30;;
21743;SDS011;11034;48.556;9.342;2023-05-16T00:24:06;11.02;;;8.68;;
21743;SDS011;11034;48.556;9.342;2023-05-16T00:26:34;12.68;;;9.63;;
21743;SDS011;11034;48.556;9.342;2023-05-16T00:29:02;14.85;;;10.20;;
21743;SDS011;11034;48.556;9.342;2023-05-16T00:31:30;13.82;;;10.57;;
21743;SDS011;11034;48.556;9.342;2023-05-16T00:33:58;16.92;;;11.20;;
21743;SDS011;11034;48.556;9.342;2023-05-16T00:36:26;15.65;;;11.70;;
21743;SDS011;11034;48.556;9.342;2023-05-16T00:38:55;17.35;;;11.35;;
21743;SDS011;11034;48.556;9.342;2023-05-16T00:41:23;15.80;;;11.65;;
21743;SDS011;11034;48.556;9.342;2023-05-16T00:43:52;16.80;;;12.63;;
21743;SDS011;11034;48.556;9.342;2023-05-16T00:46:20;18.85;;;13.07;;
21743;SDS011;11034;48.556;9.342;2023-05-16T00:48:48;19.42;;;14.02;;
21743;SDS011;11034;48.556;9.342;2023-05-16T00:51:16;20.40;;;14.05;;
21743;SDS011;11034;48.556;9.342;2023-05-16T00:53:44;20.08;;;14.82;;
21743;SDS011;11034;48.556;9.342;2023-05-16T00:56:14;19.65;;;14.65;;
21743;SDS011;11034;48.556;9.342;2023-05-16T00:58:42;21.55;;;14.57;;
21743;SDS011;11034;48.556;9.342;2023-05-16T01:01:11;20.73;;;14.55;;
21743;SDS011;11034;48.556;9.342;2023-05-16T01:03:39;19.23;;;13.55;;
21743;SDS011;11034;48.556;9.342;2023-05-16T01:06:09;20.33;;;13.77;;
21743;SDS011;11034;48.556;9.342;2023-05-16T01:08:37;20.45;;;14.13;;
21743;SDS011;11034;48.556;9.342;2023-05-16T01:11:07;20.08;;;14.80;;
21743;SDS011;11034;48.556;9.342;2023-05-16T01:13:42;19.40;;;13.95;;
21743;SDS011;11034;48.556;9.342;2023-05-16T01:16:21;19.90;;;12.70;;
21743;SDS011;11034;48.556;9.342;2023-05-16T01:18:56;15.65;;;11.88;;
21743;SDS011;11034;48.556;9.342;2023-05-16T01:21:37;17.20;;;11.73;;
21743;SDS011;11034;48.556;9.342;2023-05-16T01:24:12;15.77;;;12.13;;
21743;SDS011;11034;48.556;9.342;2023-05-16T01:26:48;16.15;;;12.73;;
21743;SDS011;11034;48.556;9.342;2023-05-16T01:29:18;18.52;;;12.77;;
21743;SDS011;11034;48.556;9.342;2023-05-16T01:31:46;18.15;;;13.38;;
21743;SDS011;11034;48.556;9.342;2023-05-16T01:34:14;19.73;;;13.32;;
21743;SDS011;11034;48.556;9.342;2023-05-16T01:36:43;20.35;;;13.68;;
21743;SDS011;11034;48.556;9.342;2023-05-16T01:39:19;20.02;;;13.07;;
21743;SDS011;11034;48.556;9.342;2023-05-16T01:41:59;18.05;;;12.57;;
21743;SDS011;11034;48.556;9.342;2023-05-16T01:44:32;18.75;;;11.93;;
21743;SDS011;11034;48.556;9.342;2023-05-16T01:47:03;16.92;;;11.73;;
21743;SDS011;11034;48.556;9.342;2023-05-16T01:49:38;15.43;;;11.20;;
21743;SDS011;11034;48.556;9.342;2023-05-16T01:52:14;14.07;;;10.55;;
21743;SDS011;11034;48.556;9.342;2023-05-16T01:54:47;12.73;;;10.00;;
21743;SDS011;11034;48.556;9.342;2023-05-16T01:57:21;14.02;;;9.98;;
21743;SDS011;11034;48.556;9.342;2023-05-16T01:59:52;14.05;;;10.38;;
21743;SDS011;11034;48.556;9.342;2023-05-16T02:02:21;13.10;;;10.32;;
21743;SDS011;11034;48.556;9.342;2023-05-16T02:04:49;15.70;;;10.35;;
21743;SDS011;11034;48.556;9.342;2023-05-16T02:07:17;14.40;;;11.05;;
21743;SDS011;11034;48.556;9.342;2023-05-16T02:09:46;17.05;;;11.90;;
21743;SDS011;11034;48.556;9.342;2023-05-16T02:12:14;13.85;;;11.45;;
21743;SDS011;11034;48.556;9.342;2023-05-16T02:14:44;14.20;;;11.15;;
21743;SDS011;11034;48.556;9.342;2023-05-16T02:17:12;17.13;;;11.93;;
21743;SDS011;11034;48.556;9.342;2023-05-16T02:19:40;19.17;;;14.75;;
21743;SDS011;11034;48.556;9.342;2023-05-16T02:22:09;24.00;;;18.52;;
21743;SDS011;11034;48.556;9.342;2023-05-16T02:24:37;26.48;;;18.88;;
21743;SDS011;11034;48.556;9.342;2023-05-16T02:27:05;28.80;;;20.27;;
21743;SDS011;11034;48.556;9.342;2023-05-16T02:29:33;30.17;;;20.67;;
21743;SDS011;11034;48.556;9.342;2023-05-16T02:32:03;30.05;;;20.95;;
21743;SDS011;11034;48.556;9.342;2023-05-16T02:34:31;31.23;;;20.40;;
21743;SDS011;11034;48.556;9.342;2023-05-16T02:36:59;30.83;;;21.08;;
21743;SDS011;11034;48.556;9.342;2023-05-16T02:39:27;30.77;;;21.25;;
21743;SDS011;11034;48.556;9.342;2023-05-16T02:41:56;29.92;;;21.50;;
21743;SDS011;11034;48.556;9.342;2023-05-16T02:44:24;32.45;;;21.92;;
21743;SDS011;11034;48.556;9.342;2023-05-16T02:46:53;32.00;;;22.55;;
21743;SDS011;11034;48.556;9.342;2023-05-16T02:49:22;33.15;;;22.30;;
21743;SDS011;11034;48.556;9.342;2023-05-16T02:51:50;36.03;;;24.05;;
21743;SDS011;11034;48.556;9.342;2023-05-16T02:54:18;33.85;;;24.05;;
21743;SDS011;11034;48.556;9.342;2023-05-16T02:56:46;29.55;;;20.75;;
21743;SDS011;11034;48.556;9.342;2023-05-16T02:59:15;25.60;;;19.02;;
21743;SDS011;11034;48.556;9.342;2023-05-16T03:01:43;32.45;;;21.08;;
21743;SDS011;11034;48.556;9.342;2023-05-16T03:04:11;31.17;;;21.25;;
21743;SDS011;11034;48.556;9.342;2023-05-16T03:06:40;33.13;;;21.02;;
21743;SDS011;11034;48.556;9.342;2023-05-16T03:09:09;34.45;;;22.27;;
21743;SDS011;11034;48.556;9.342;2023-05-16T03:11:36;31.95;;;22.40;;
21743;SDS011;11034;48.556;9.342;2023-05-16T03:14:04;33.00;;;23.50;;
21743;SDS011;11034;48.556;9.342;2023-05-16T03:16:33;35.35;;;23.80;;
21743;SDS011;11034;48.556;9.342;2023-05-16T03:19:04;32.65;;;23.13;;
21743;SDS011;11034;48.556;9.342;2023-05-16T03:21:32;33.65;;;23.52;;
21743;SDS011;11034;48.556;9.342;2023-05-16T03:24:02;37.28;;;24.88;;
21743;SDS011;11034;48.556;9.342;2023-05-16T03:26:31;37.30;;;23.75;;
21743;SDS011;11034;48.556;9.342;2023-05-16T03:28:59;39.22;;;25.85;;
21743;SDS011;11034;48.556;9.342;2023-05-16T03:31:27;40.75;;;26.17;;
21743;SDS011;11034;48.556;9.342;2023-05-16T03:33:55;40.22;;;26.10;;
21743;SDS011;11034;48.556;9.342;2023-05-16T03:36:23;41.05;;;26.90;;
21743;SDS011;11034;48.556;9.342;2023-05-16T03:38:52;45.83;;;28.95;;
21743;SDS011;11034;48.556;9.342;2023-05-16T03:41:21;49.53;;;28.80;;
21743;SDS011;11034;48.556;9.342;2023-05-16T03:43:49;46.53;;;30.67;;
21743;SDS011;11034;48.556;9.342;2023-05-16T03:46:17;47.35;;;30.92;;
21743;SDS011;11034;48.556;9.342;2023-05-16T03:48:45;48.95;;;31.17;;
21743;SDS011;11034;48.556;9.342;2023-05-16T03:51:13;49.72;;;31.05;;
21743;SDS011;11034;48.556;9.342;2023-05-16T03:53:41;49.58;;;31.25;;
21743;SDS011;11034;48.556;9.342;2023-05-16T03:56:09;46.40;;;30.63;;
21743;SDS011;11034;48.556;9.342;2023-05-16T03:58:39;52.17;;;32.47;;
21743;SDS011;11034;48.556;9.342;2023-05-16T04:01:07;64.72;;;34.83;;
21743;SDS011;11034;48.556;9.342;2023-05-16T04:03:35;56.75;;;32.63;;
21743;SDS011;11034;48.556;9.342;2023-05-16T04:06:04;54.13;;;33.30;;
21743;SDS011;11034;48.556;9.342;2023-05-16T04:08:33;56.13;;;35.25;;
21743;SDS011;11034;48.556;9.342;2023-05-16T04:11:01;56.47;;;34.42;;
21743;SDS011;11034;48.556;9.342;2023-05-16T04:13:29;53.92;;;34.00;;
21743;SDS011;11034;48.556;9.342;2023-05-16T04:15:58;58.75;;;35.80;;
21743;SDS011;11034;48.556;9.342;2023-05-16T04:18:26;54.30;;;33.67;;
21743;SDS011;11034;48.556;9.342;2023-05-16T04:20:54;56.03;;;34.25;;
21743;SDS011;11034;48.556;9.342;2023-05-16T04:23:22;56.28;;;35.13;;
21743;SDS011;11034;48.556;9.342;2023-05-16T04:25:50;53.42;;;34.60;;
21743;SDS011;11034;48.556;9.342;2023-05-16T04:28:19;57.15;;;33.50;;
21743;SDS011;11034;48.556;9.342;2023-05-16T04:30:47;52.70;;;31.75;;
21743;SDS011;11034;48.556;9.342;2023-05-16T04:33:17;54.67;;;33.55;;
21743;SDS011;11034;48.556;9.342;2023-05-16T04:35:45;54.10;;;33.20;;
21743;SDS011;11034;48.556;9.342;2023-05-16T04:38:13;58.78;;;33.75;;
21743;SDS011;11034;48.556;9.342;2023-05-16T04:40:42;54.50;;;34.42;;
21743;SDS011;11034;48.556;9.342;2023-05-16T04:43:10;51.63;;;32.60;;
21743;SDS011;11034;48.556;9.342;2023-05-16T04:45:38;48.47;;;32.22;;
21743;SDS011;11034;48.556;9.342;2023-05-16T04:48:09;53.08;;;33.35;;
21743;SDS011;11034;48.556;9.342;2023-05-16T04:50:39;57.17;;;35.10;;
21743;SDS011;11034;48.556;9.342;2023-05-16T04:53:07;57.03;;;35.15;;
21743;SDS011;11034;48.556;9.342;2023-05-16T04:55:35;56.33;;;35.03;;
21743;SDS011;11034;48.556;9.342;2023-05-16T04:58:03;63.08;;;35.90;;
21743;SDS011;11034;48.556;9.342;2023-05-16T05:00:31;56.25;;;34.00;;
21743;SDS011;11034;48.556;9.342;2023-05-16T05:02:59;64.07;;;37.08;;
21743;SDS011;11034;48.556;9.342;2023-05-16T05:05:27;54.78;;;34.30;;
21743;SDS011;11034;48.556;9.342;2023-05-16T05:07:57;59.30;;;36.40;;
21743;SDS011;11034;48.556;9.342;2023-05-16T05:10:26;61.30;;;35.72;;
21743;SDS011;11034;48.556;9.342;2023-05-16T05:12:56;63.05;;;36.97;;
21743;SDS011;11034;48.556;9.342;2023-05-16T05:15:24;63.88;;;36.45;;
21743;SDS011;11034;48.556;9.342;2023-05-16T05:17:53;61.03;;;38.15;;
21743;SDS011;11034;48.556;9.342;2023-05-16T05:20:21;65.75;;;38.00;;
21743;SDS011;11034;48.556;9.342;2023-05-16T05:22:49;63.58;;;35.90;;
21743;SDS011;11034;48.556;9.342;2023-05-16T05:25:18;62.22;;;37.72;;
21743;SDS011;11034;48.556;9.342;2023-05-16T05:27:46;61.38;;;37.85;;
21743;SDS011;11034;48.556;9.342;2023-05-16T05:30:14;63.83;;;37.90;;
21743;SDS011;11034;48.556;9.342;2023-05-16T05:32:42;63.63;;;36.88;;
21743;SDS011;11034;48.556;9.342;2023-05-16T05:35:10;60.90;;;36.20;;
21743;SDS011;11034;48.556;9.342;2023-05-16T05:37:38;63.35;;;36.70;;
21743;SDS011;11034;48.556;9.342;2023-05-16T05:40:07;59.10;;;35.97;;
21743;SDS011;11034;48.556;9.342;2023-05-16T05:42:37;54.33;;;32.80;;
21743;SDS011;11034;48.556;9.342;2023-05-16T05:45:05;55.95;;;32.65;;
21743;SDS011;11034;48.556;9.342;2023-05-16T05:47:33;57.67;;;33.92;;
21743;SDS011;11034;48.556;9.342;2023-05-16T05:50:01;58.65;;;34.30;;
21743;SDS011;11034;48.556;9.342;2023-05-16T05:52:30;48.17;;;30.73;;
21743;SDS011;11034;48.556;9.342;2023-05-16T05:54:58;58.58;;;34.58;;
21743;SDS011;11034;48.556;9.342;2023-05-16T05:57:26;59.75;;;34.75;;
21743;SDS011;11034;48.556;9.342;2023-05-16T05:59:56;51.03;;;32.55;;
21743;SDS011;11034;48.556;9.342;2023-05-16T06:02:24;57.05;;;33.30;;
21743;SDS011;11034;48.556;9.342;2023-05-16T06:04:52;60.65;;;34.80;;
21743;SDS011;11034;48.556;9.342;2023-05-16T06:07:21;60.08;;;35.33;;
21743;SDS011;11034;48.556;9.342;2023-05-16T06:09:49;61.08;;;34.95;;
21743;SDS011;11034;48.556;9.342;2023-05-16T06:12:17;62.40;;;37.33;;
21743;SDS011;11034;48.556;9.342;2023-05-16T06:14:45;64.90;;;36.15;;
21743;SDS011;11034;48.556;9.342;2023-05-16T06:17:17;56.97;;;32.90;;
21743;SDS011;11034;48.556;9.342;2023-05-16T06:19:47;61.58;;;35.30;;
21743;SDS011;11034;48.556;9.342;2023-05-16T06:22:15;61.95;;;35.17;;
21743;SDS011;11034;48.556;9.342;2023-05-16T06:24:43;65.28;;;36.38;;
21743;SDS011;11034;48.556;9.342;2023-05-16T06:27:11;62.72;;;36.20;;
21743;SDS011;11034;48.556;9.342;2023-05-16T06:29:40;61.90;;;36.50;;
21743;SDS011;11034;48.556;9.342;2023-05-16T06:32:13;69.05;;;37.95;;
21743;SDS011;11034;48.556;9.342;2023-05-16T06:34:42;70.78;;;36.25;;
21743;SDS011;11034;48.556;9.342;2023-05-16T06:37:13;60.78;;;35.15;;
21743;SDS011;11034;48.556;9.342;2023-05-16T06:39:43;62.20;;;36.05;;
21743;SDS011;11034;48.556;9.342;2023-05-16T06:42:11;64.43;;;36.08;;
21743;SDS011;11034;48.556;9.342;2023-05-16T06:44:39;62.38;;;36.03;;
21743;SDS011;11034;48.556;9.342;2023-05-16T06:47:09;58.42;;;35.45;;
21743;SDS011;11034;48.556;9.342;2023-05-16T06:49:37;59.47;;;35.75;;
21743;SDS011;11034;48.556;9.342;2023-05-16T06:52:06;63.85;;;36.28;;
21743;SDS011;11034;48.556;9.342;2023-05-16T06:54:35;65.60;;;37.30;;
21743;SDS011;11034;48.556;9.342;2023-05-16T06:57:03;57.70;;;35.83;;
21743;SDS011;11034;48.556;9.342;2023-05-16T06:59:32;62.75;;;36.25;;
21743;SDS011;11034;48.556;9.342;2023-05-16T07:02:07;66.13;;;37.13;;
21743;SDS011;11034;48.556;9.342;2023-05-16T07:04:35;64.45;;;37.92;;
21743;SDS011;11034;48.556;9.342;2023-05-16T07:07:04;61.63;;;37.28;;
21743;SDS011;11034;48.556;9.342;2023-05-16T07:09:34;60.17;;;36.05;;
21743;SDS011;11034;48.556;9.342;2023-05-16T07:12:02;56.67;;;34.08;;
21743;SDS011;11034;48.556;9.342;2023-05-16T07:14:31;58.55;;;34.35;;
21743;SDS011;11034;48.556;9.342;2023-05-16T07:17:00;53.00;;;33.05;;
21743;SDS011;11034;48.556;9.342;2023-05-16T07:19:29;56.80;;;34.78;;
21743;SDS011;11034;48.556;9.342;2023-05-16T07:22:02;55.58;;;33.42;;
21743;SDS011;11034;48.556;9.342;2023-05-16T07:24:30;54.95;;;33.08;;
21743;SDS011;11034;48.556;9.342;2023-05-16T07:27:00;47.90;;;31.48;;
21743;SDS011;11034;48.556;9.342;2023-05-16T07:29:28;55.03;;;32.15;;
21743;SDS011;11034;48.556;9.342;2023-05-16T07:31:56;47.80;;;31.65;;
21743;SDS011;11034;48.556;9.342;2023-05-16T07:34:25;46.95;;;30.38;;
21743;SDS011;11034;48.556;9.342;2023-05-16T07:36:53;53.35;;;32.42;;
21743;SDS011;11034;48.556;9.342;2023-05-16T07:39:21;45.88;;;29.42;;
21743;SDS011;11034;48.556;9.342;2023-05-16T07:41:54;46.17;;;28.20;;
21743;SDS011;11034;48.556;9.342;2023-05-16T07:44:24;45.95;;;28.17;;
21743;SDS011;11034;48.556;9.342;2023-05-16T07:46:54;47.33;;;29.42;;
21743;SDS011;11034;48.556;9.342;2023-05-16T07:49:22;44.97;;;27.63;;
21743;SDS011;11034;48.556;9.342;2023-05-16T07:51:50;45.85;;;28.05;;
21743;SDS011;11034;48.556;9.342;2023-05-16T07:54:18;43.53;;;28.75;;
21743;SDS011;11034;48.556;9.342;2023-05-16T07:56:46;46.90;;;28.80;;
21743;SDS011;11034;48.556;9.342;2023-05-16T07:59:14;44.47;;;27.63;;
21743;SDS011;11034;48.556;9.342;2023-05-16T08:01:44;45.55;;;28.88;;
21743;SDS011;11034;48.556;9.342;2023-05-16T08:04:12;44.83;;;28.00;;
21743;SDS011;11034;48.556;9.342;2023-05-16T08:06:40;39.67;;;26.90;;
21743;SDS011;11034;48.556;9.342;2023-05-16T08:09:09;42.90;;;29.00;;
21743;SDS011;11034;48.556;9.342;2023-05-16T08:11:37;40.65;;;28.35;;
21743;SDS011;11034;48.556;9.342;2023-05-16T08:14:05;43.85;;;27.60;;
21743;SDS011;11034;48.556;9.342;2023-05-16T08:16:33;45.15;;;27.27;;
21743;SDS011;11034;48.556;9.342;2023-05-16T08:19:03;41.80;;;26.98;;
21743;SDS011;11034;48.556;9.342;2023-05-16T08:21:32;39.10;;;26.05;;
21743;SDS011;11034;48.556;9.342;2023-05-16T08:24:00;40.63;;;25.80;;
21743;SDS011;11034;48.556;9.342;2023-05-16T08:26:31;39.38;;;25.80;;
21743;SDS011;11034;48.556;9.342;2023-05-16T08:28:59;36.90;;;23.58;;
21743;SDS011;11034;48.556;9.342;2023-05-16T08:31:28;36.72;;;23.58;;
21743;SDS011;11034;48.556;9.342;2023-05-16T08:33:57;33.05;;;22.58;;
21743;SDS011;11034;48.556;9.342;2023-05-16T08:36:28;34.85;;;23.38;;
21743;SDS011;11034;48.556;9.342;2023-05-16T08:38:56;31.67;;;22.67;;
21743;SDS011;11034;48.556;9.342;2023-05-16T08:41:24;34.58;;;22.52;;
21743;SDS011;11034;48.556;9.342;2023-05-16T08:43:53;35.22;;;22.67;;
21743;SDS011;11034;48.556;9.342;2023-05-16T08:46:24;37.88;;;23.98;;
21743;SDS011;11034;48.556;9.342;2023-05-16T08:48:57;33.78;;;22.92;;
21743;SDS011;11034;48.556;9.342;2023-05-16T08:51:28;35.58;;;22.90;;
21743;SDS011;11034;48.556;9.342;2023-05-16T08:54:02;32.45;;;23.40;;
21743;SDS011;11034;48.556;9.342;2023-05-16T08:56:32;33.22;;;22.30;;
21743;SDS011;11034;48.556;9.342;2023-05-16T08:59:03;32.50;;;22.67;;
21743;SDS011;11034;48.556;9.342;2023-05-16T09:01:32;31.63;;;21.95;;
21743;SDS011;11034;48.556;9.342;2023-05-16T09:04:01;29.88;;;20.23;;
21743;SDS011;11034;48.556;9.342;2023-05-16T09:06:31;28.83;;;20.42;;
21743;SDS011;11034;48.556;9.342;2023-05-16T09:08:59;31.02;;;21.20;;
21743;SDS011;11034;48.556;9.342;2023-05-16T09:11:29;26.75;;;19.80;;
21743;SDS011;11034;48.556;9.342;2023-05-16T09:13:59;26.73;;;18.70;;
21743;SDS011;11034;48.556;9.342;2023-05-16T09:16:27;23.67;;;17.30;;
21743;SDS011;11034;48.556;9.342;2023-05-16T09:18:58;24.38;;;17.67;;
21743;SDS011;11034;48.556;9.342;2023-05-16T09:21:28;26.38;;;17.65;;
21743;SDS011;11034;48.556;9.342;2023-05-16T09:24:02;28.23;;;19.15;;
21743;SDS011;11034;48.556;9.342;2023-05-16T09:26:32;27.75;;;20.48;;
21743;SDS011;11034;48.556;9.342;2023-05-16T09:29:09;26.95;;;19.70;;
21743;SDS011;11034;48.556;9.342;2023-05-16T09:31:38;31.75;;;22.52;;
21743;SDS011;11034;48.556;9.342;2023-05-16T09:34:07;30.77;;;21.73;;
21743;SDS011;11034;48.556;9.342;2023-05-16T09:36:38;28.02;;;20.25;;
21743;SDS011;11034;48.556;9.342;2023-05-16T09:39:10;32.75;;;22.30;;
21743;SDS011;11034;48.556;9.342;2023-05-16T09:41:42;31.55;;;21.45;;
21743;SDS011;11034;48.556;9.342;2023-05-16T09:44:10;31.88;;;21.77;;
21743;SDS011;11034;48.556;9.342;2023-05-16T09:46:41;30.95;;;21.70;;
21743;SDS011;11034;48.556;9.342;2023-05-16T09:49:10;32.55;;;22.60;;
21743;SDS011;11034;48.556;9.342;2023-05-16T09:51:39;33.03;;;22.33;;
21743;SDS011;11034;48.556;9.342;2023-05-16T09:54:07;31.17;;;22.02;;
21743;SDS011;11034;48.556;9.342;2023-05-16T09:56:48;31.90;;;22.05;;
21743;SDS011;11034;48.556;9.342;2023-05-16T09:59:20;32.83;;;24.00;;
21743;SDS011;11034;48.556;9.342;2023-05-16T10:01:48;33.35;;;23.00;;
21743;SDS011;11034;48.556;9.342;2023-05-16T10:04:19;31.50;;;22.17;;
21743;SDS011;11034;48.556;9.342;2023-05-16T10:06:47;36.50;;;24.60;;
21743;SDS011;11034;48.556;9.342;2023-05-16T10:09:18;31.05;;;22.48;;
21743;SDS011;11034;48.556;9.342;2023-05-16T10:11:49;31.95;;;22.58;;
21743;SDS011;11034;48.556;9.342;2023-05-16T10:14:18;31.13;;;21.80;;
21743;SDS011;11034;48.556;9.342;2023-05-16T10:16:48;31.48;;;21.10;;
21743;SDS011;11034;48.556;9.342;2023-05-16T10:19:20;31.20;;;22.10;;
21743;SDS011;11034;48.556;9.342;2023-05-16T10:21:53;31.85;;;21.95;;
21743;SDS011;11034;48.556;9.342;2023-05-16T10:24:28;31.33;;;21.42;;
21743;SDS011;11034;48.556;9.342;2023-05-16T10:27:04;30.60;;;20.25;;
21743;SDS011;11034;48.556;9.342;2023-05-16T10:29:32;33.45;;;23.08;;
21743;SDS011;11034;48.556;9.342;2023-05-16T10:32:19;29.33;;;19.70;;
21743;SDS011;11034;48.556;9.342;2023-05-16T10:34:50;29.77;;;20.67;;
21743;SDS011;11034;48.556;9.342;2023-05-16T10:37:18;29.38;;;19.60;;
21743;SDS011;11034;48.556;9.342;2023-05-16T10:39:47;26.75;;;19.75;;
21743;SDS011;11034;48.556;9.342;2023-05-16T10:42:17;27.85;;;19.95;;
21743;SDS011;11034;48.556;9.342;2023-05-16T10:44:47;29.58;;;19.38;;
21743;SDS011;11034;48.556;9.342;2023-05-16T10:47:29;27.45;;;20.40;;
21743;SDS011;11034;48.556;9.342;2023-05-16T10:50:00;27.52;;;19.35;;
21743;SDS011;11034;48.556;9.342;2023-05-16T10:52:31;29.55;;;21.63;;
21743;SDS011;11034;48.556;9.342;2023-05-16T10:55:01;28.38;;;20.67;;
21743;SDS011;11034;48.556;9.342;2023-05-16T10:57:32;27.55;;;19.67;;
21743;SDS011;11034;48.556;9.342;2023-05-16T11:00:02;30.50;;;20.83;;
21743;SDS011;11034;48.556;9.342;2023-05-16T11:02:48;30.63;;;21.17;;
21743;SDS011;11034;48.556;9.342;2023-05-16T11:05:16;33.92;;;23.60;;
21743;SDS011;11034;48.556;9.342;2023-05-16T11:07:45;35.92;;;24.77;;
21743;SDS011;11034;48.556;9.342;2023-05-16T11:10:30;32.78;;;21.13;;
21743;SDS011;11034;48.556;9.342;2023-05-16T11:13:06;33.38;;;21.98;;
21743;SDS011;11034;48.556;9.342;2023-05-16T11:15:34;32.10;;;22.13;;
21743;SDS011;11034;48.556;9.342;2023-05-16T11:18:03;34.17;;;23.63;;
21743;SDS011;11034;48.556;9.342;2023-05-16T11:20:33;32.53;;;22.45;;
21743;SDS011;11034;48.556;9.342;2023-05-16T11:23:21;31.27;;;21.27;;
21743;SDS011;11034;48.556;9.342;2023-05-16T11:25:51;35.05;;;22.65;;
21743;SDS011;11034;48.556;9.342;2023-05-16T11:28:22;35.75;;;22.55;;
21743;SDS011;11034;48.556;9.342;2023-05-16T11:30:52;34.28;;;22.90;;
21743;SDS011;11034;48.556;9.342;2023-05-16T11:33:23;36.55;;;22.20;;
21743;SDS011;11034;48.556;9.342;2023-05-16T11:35:59;31.90;;;21.95;;
21743;SDS011;11034;48.556;9.342;2023-05-16T11:38:40;34.75;;;21.73;;
21743;SDS011;11034;48.556;9.342;2023-05-16T11:41:09;34.33;;;21.83;;
21743;SDS011;11034;48.556;9.342;2023-05-16T11:43:39;29.15;;;21.10;;
21743;SDS011;11034;48.556;9.342;2023-05-16T11:46:13;32.90;;;21.88;;
21743;SDS011;11034;48.556;9.342;2023-05-16T11:48:42;31.80;;;21.30;;
21743;SDS011;11034;48.556;9.342;2023-05-16T11:51:11;33.17;;;21.88;;
21743;SDS011;11034;48.556;9.342;2023-05-16T11:53:44;31.83;;;18.92;;
21743;SDS011;11034;48.556;9.342;2023-05-16T11:56:13;31.85;;;21.25;;
21743;SDS011;11034;48.556;9.342;2023-05-16T11:58:43;32.45;;;21.00;;
21743;SDS011;11034;48.556;9.342;2023-05-16T12:01:13;29.55;;;20.42;;
21743;SDS011;11034;48.556;9.342;2023-05-16T12:03:41;32.15;;;21.15;;
21743;SDS011;11034;48.556;9.342;2023-05-16T12:06:09;30.98;;;21.52;;
21743;SDS011;11034;48.556;9.342;2023-05-16T12:08:37;34.28;;;20.30;;
21743;SDS011;11034;48.556;9.342;2023-05-16T12:11:06;32.13;;;21.27;;
21743;SDS011;11034;48.556;9.342;2023-05-16T12:13:36;31.65;;;20.67;;
21743;SDS011;11034;48.556;9.342;2023-05-16T12:16:06;32.70;;;19.85;;
21743;SDS011;11034;48.556;9.342;2023-05-16T12:18:36;31.23;;;20.05;;
21743;SDS011;11034;48.556;9.342;2023-05-16T12:21:08;27.90;;;19.00;;
21743;SDS011;11034;48.556;9.342;2023-05-16T12:23:36;29.23;;;20.00;;
21743;SDS011;11034;48.556;9.342;2023-05-16T12:26:05;28.85;;;18.08;;
21743;SDS011;11034;48.556;9.342;2023-05-16T12:28:34;26.20;;;15.98;;
21743;SDS011;11034;48.556;9.342;2023-05-16T12:31:11;28.02;;;16.58;;
21743;SDS011;11034;48.556;9.342;2023-05-16T12:33:57;27.63;;;15.43;;
21743;SDS011;11034;48.556;9.342;2023-05-16T12:36:30;24.52;;;16.00;;
21743;SDS011;11034;48.556;9.342;2023-05-16T12:38:59;25.73;;;16.35;;
21743;SDS011;11034;48.556;9.342;2023-05-16T12:41:29;25.00;;;17.05;;
21743;SDS011;11034;48.556;9.342;2023-05-16T12:44:10;25.67;;;16.63;;
21743;SDS011;11034;48.556;9.342;2023-05-16T12:46:41;26.35;;;15.77;;
21743;SDS011;11034;48.556;9.342;2023-05-16T12:49:10;26.50;;;16.48;;
21743;SDS011;11034;48.556;9.342;2023-05-16T12:51:39;29.20;;;18.95;;
21743;SDS011;11034;48.556;9.342;2023-05-16T12:54:14;28.63;;;17.23;;
21743;SDS011;11034;48.556;9.342;2023-05-16T12:56:43;31.08;;;17.67;;
21743;SDS011;11034;48.556;9.342;2023-05-16T12:59:12;29.63;;;19.33;;
21743;SDS011;11034;48.556;9.342;2023-05-16T13:01:42;32.47;;;19.73;;
21743;SDS011;11034;48.556;9.342;2023-05-16T13:04:11;36.25;;;21.85;;
21743;SDS011;11034;48.556;9.342;2023-05-16T13:06:44;34.50;;;20.80;;
21743;SDS011;11034;48.556;9.342;2023-05-16T13:09:24;36.05;;;21.65;;
21743;SDS011;11034;48.556;9.342;2023-05-16T13:11:57;37.47;;;21.65;;
21743;SDS011;11034;48.556;9.342;2023-05-16T13:14:29;38.35;;;22.25;;
21743;SDS011;11034;48.556;9.342;2023-05-16T13:16:58;37.80;;;22.70;;
21743;SDS011;11034;48.556;9.342;2023-05-16T13:19:26;41.40;;;23.30;;
21743;SDS011;11034;48.556;9.342;2023-05-16T13:21:57;39.05;;;21.95;;
21743;SDS011;11034;48.556;9.342;2023-05-16T13:24:26;41.50;;;23.90;;
21743;SDS011;11034;48.556;9.342;2023-05-16T13:26:54;38.10;;;22.45;;
21743;SDS011;11034;48.556;9.342;2023-05-16T13:29:23;38.25;;;22.70;;
21743;SDS011;11034;48.556;9.342;2023-05-16T13:31:51;39.15;;;22.25;;
21743;SDS011;11034;48.556;9.342;2023-05-16T13:34:20;38.45;;;22.13;;
21743;SDS011;11034;48.556;9.342;2023-05-16T13:36:48;33.03;;;20.92;;
21743;SDS011;11034;48.556;9.342;2023-05-16T13:39:20;35.05;;;20.90;;
21743;SDS011;11034;48.556;9.342;2023-05-16T13:41:49;30.20;;;19.17;;
21743;SDS011;11034;48.556;9.342;2023-05-16T13:44:25;32.67;;;19.30;;
21743;SDS011;11034;48.556;9.342;2023-05-16T13:46:55;31.63;;;17.83;;
21743;SDS011;11034;48.556;9.342;2023-05-16T13:49:24;30.50;;;18.10;;
21743;SDS011;11034;48.556;9.342;2023-05-16T13:51:53;31.05;;;19.27;;
21743;SDS011;11034;48.556;9.342;2023-05-16T13:54:21;25.90;;;16.75;;
21743;SDS011;11034;48.556;9.342;2023-05-16T13:56:49;22.95;;;15.88;;
21743;SDS011;11034;48.556;9.342;2023-05-16T13:59:17;23.27;;;14.82;;
21743;SDS011;11034;48.556;9.342;2023-05-16T14:02:05;22.20;;;15.25;;
21743;SDS011;11034;48.556;9.342;2023-05-16T14:04:34;18.05;;;12.63;;
21743;SDS011;11034;48.556;9.342;2023-05-16T14:07:05;16.88;;;11.90;;
21743;SDS011;11034;48.556;9.342;2023-05-16T14:09:33;17.15;;;11.98;;
21743;SDS011;11034;48.556;9.342;2023-05-16T14:12:04;17.73;;;11.40;;
21743;SDS011;11034;48.556;9.342;2023-05-16T14:14:33;17.25;;;10.50;;
21743;SDS011;11034;48.556;9.342;2023-05-16T14:17:01;14.45;;;10.43;;
21743;SDS011;11034;48.556;9.342;2023-05-16T14:19:32;14.65;;;10.38;;
21743;SDS011;11034;48.556;9.342;2023-05-16T14:22:02;12.95;;;9.93;;
21743;SDS011;11034;48.556;9.342;2023-05-16T14:24:30;14.40;;;9.85;;
21743;SDS011;11034;48.556;9.342;2023-05-16T14:26:58;12.25;;;9.60;;
21743;SDS011;11034;48.556;9.342;2023-05-16T14:29:27;15.55;;;10.95;;
21743;SDS011;11034;48.556;9.342;2023-05-16T14:31:55;12.18;;;9.55;;
21743;SDS011;11034;48.556;9.342;2023-05-16T14:34:23;14.40;;;9.00;;
21743;SDS011;11034;48.556;9.342;2023-05-16T14:36:51;11.35;;;9.40;;
21743;SDS011;11034;48.556;9.342;2023-05-16T14:39:21;11.07;;;8.93;;